Tiempo atmosférico en la estación meteorológica de Belorado, Burgos (875 m.)



Fecha
DESCASC
Temp. máxima en grados centígrados (hora)
DESCASC
Temp. mínima en grados centígrados (hora)
DESCASC
Temp. media en grados centígrados
DESCASC
Racha de viento máxima en m/sg (hora)
DESCASC
Velocidad máxima media en intervalos de 10 minutos(hora)
DESCASC
Precipitaciones diarias en mm
DESCASC
Precipitaciones de 00:00 a 06:00 en mm
DESCASC
Precipitaciones de 06:00 a 12:00 en mm
DESCASC
Precipitaciones de 12:00 a 18:00 en mm
DESCASC
Precipitaciones de 18:00 a 24:00 en mm
DESCASC
18-01-2018 13.9 (15:30) 0 (01:10) 6.9 6.11 (14:20) 4.72 (13:50) 0 0 0 0 0
17-01-2018 9.5 (15:20) 0.6 (23:50) 5.1 10.83 (02:10) 5.56 (03:10) 0 0 0 0 0
16-01-2018 11.1 (15:10) 5.9 (03:10) 8.5 13.89 (23:30) 5.56 (23:30) 0 0 0 0 0
15-01-2018 6.6 (12:00) 0.5 (08:20) 3.5 13.33 (18:10) 4.72 (23:10) 0 0 0 0 0
14-01-2018 4.9 (13:50) 0.8 (00:00) 2.9 8.61 (02:50) 3.61 (02:40) 0.1 0 0 0 0.1
13-01-2018 1.4 (22:50) -0.8 (-00:0) 0.3 5.83 (22:40) 3.33 (23:50) 2.9 0 0 0.5 2.4
12-01-2018 7.7 (14:00) 0.5 (00:00) 4.1 6.11 (18:20) 3.61 (16:00) 0.4 0.3 0.1 0 0
11-01-2018 5.7 (15:00) 1 (00:00) 3.3 14.17 (03:10) 5.28 (03:50) 0.1 0 0 0 0.1
10-01-2018 6.9 (15:10) 1.4 (00:00) 4.2 12.5 (20:30) 4.72 (20:30) 1.1 0 0 1.1 0
09-01-2018 4.7 (15:40) -2.5 (-00:0) 1.1 10.28 (13:10) 5.28 (02:00) 0 0 0 0 0
08-01-2018 4.3 (15:30) -4.6 (-00:0) -0.1 9.17 (23:59) 3.61 (23:00) 0 0 0 0 0
07-01-2018 2.2 (14:00) -1.4 (-00:0) 0.4 6.67 (16:20) 5 (16:10) 12.5 6.6 5.4 0.5 0
06-01-2018 3.8 (00:10) -0.2 (00:00) 1.8 5.83 (00:10) 4.17 (00:10) 31.4 6.1 4.3 10.5 10.5
05-01-2018 10.9 (14:50) 3.7 (00:00) 7.3 18.61 (03:20) 5.83 (02:10) 7.5 0 0 0 7.5
04-01-2018 12.6 (14:10) 9.9 (23:20) 11.3 15.56 (11:50) 6.11 (16:10) 0 0 0 0 0
03-01-2018 14 (15:50) 10.8 (00:00) 12.4 13.89 (07:50) 5 (15:20) 0 0 0 0 0
02-01-2018 11.3 (13:30) 7 (00:00) 9.2 15.56 (16:00) 5.28 (12:10) 0 0 0 0 0
01-01-2018 9 (20:00) 2.9 (00:00) 6 21.67 (16:10) 6.67 (14:10) 0.1 0 0 0 0.1
31-12-2017 11.7 (14:50) 2.8 (00:00) 7.2 15.83 (13:00) 4.72 (17:00) 1.3 0 0 1.3 0
30-12-2017 13.2 (14:10) 9 (00:00) 11.1 14.44 (01:50) 5 (15:30) 0 0 0 0 0
29-12-2017 12.4 (14:10) 4.4 (00:00) 8.4 13.61 (08:50) 5.28 (08:40) 0.2 0 0.2 0 0
28-12-2017 8.7 (17:00) 3.2 (00:00) 5.9 18.61 (13:10) 6.94 (13:40) 0 0 0 0 0
27-12-2017 7.2 (00:20) 2.3 (00:00) 4.7 18.89 (00:40) 7.5 (01:40) 2.1 2 0 0 0.1
26-12-2017 7 (22:50) 2.3 (00:00) 4.6 23.33 (22:00) 7.5 (22:40) 0.2 0 0 0 0.2
25-12-2017 7.6 (20:00) -3.3 (-00:0) 2.1 13.33 (22:40) 4.44 (20:40) 0.7 0 0 0 0.7
24-12-2017 11.8 (15:10) -2.1 (-00:0) 4.9 6.39 (14:50) 4.72 (14:10) 0 0 0 0 0
23-12-2017 5.8 (13:50) 2.9 (00:00) 4.4 4.72 (12:50) 3.33 (13:00) 0 0 0 0 0
22-12-2017 7.6 (15:10) 0.6 (00:00) 4.1 5.56 (11:50) 4.17 (11:50) 0 0 0 0 0

Gráficas

Temp. máximas Temp. mínimas Temp. medias Precipitaciones Rachas de viento máximas Velocidades máximas media en intervalos de 10 minutos

Datos horarios

Fecha y hora oficial Temperatura (ºC) Velocidad del viento (km/h) Dirección del viento Racha (km/h) Dirección de racha Precipitación (mm) Presión (hPa) Tendencia (hPa) Humedad (%)
2018-01-20 23:00:00 8.5 8 Sudoeste 26 Sur 0 -- -- 73
2018-01-20 22:00:00 8.6 10 Sudoeste 31 Sur 0 -- -- 72
2018-01-20 21:00:00 9.1 12 Sudoeste 36 Oeste 0 -- -- 70
2018-01-20 20:00:00 9.4 11 Sudoeste 32 Sur 0 -- -- 69
2018-01-20 19:00:00 9.4 8 Sudoeste 24 Oeste 0 -- -- 66
2018-01-20 18:00:00 9.3 9 Sudoeste 25 Sur 0 -- -- 60
2018-01-20 17:00:00 9.8 8 Oeste 32 Oeste 0 -- -- 52
2018-01-20 16:00:00 10.9 11 Oeste 34 Oeste 0 -- -- 48
2018-01-20 15:00:00 10.4 10 Sudoeste 34 Oeste 0 -- -- 47
2018-01-20 14:00:00 10.7 12 Sudoeste 35 Sur 0 -- -- 43
2018-01-20 13:00:00 9.8 13 Sudoeste 40 Sur 0 -- -- 43
2018-01-20 12:00:00 8.6 14 Sudoeste 45 Sur 0 -- -- 45
2018-01-20 11:00:00 7.7 17 Sudoeste 45 Oeste 0 -- -- 47
2018-01-20 10:00:00 7.1 15 Sudoeste 42 Oeste 0 -- -- 49
2018-01-20 09:00:00 6.4 15 Sudoeste 38 Oeste 0 -- -- 51
2018-01-20 08:00:00 6.5 13 Sudoeste 34 Oeste 0 -- -- 52
2018-01-20 07:00:00 6.4 10 Sudoeste 32 Sur 0 -- -- 55
2018-01-20 06:00:00 6 8 Sudoeste 33 Sur 0 -- -- 61
2018-01-20 05:00:00 4 7 Oeste 24 Oeste 0 -- -- 70
2018-01-20 04:00:00 2.5 7 Oeste 14 Oeste 0 -- -- 76
2018-01-20 03:00:00 2.2 5 Sudoeste 11 Sur 0 -- -- 76
2018-01-20 02:00:00 2.8 5 Sudoeste 10 Oeste 0 -- -- 75
2018-01-20 01:00:00 2.7 5 Sudoeste 13 Oeste 0 -- -- 75
2018-01-20 00:00:00 2.7 5 Sudoeste 12 Oeste 0 -- -- 74
2018-01-19 23:00:00 3.6 5 Sudoeste 24 Oeste 0 -- -- 70
2018-01-19 22:00:00 5.6 14 Noroeste 30 Norte 0 -- -- 64
2018-01-19 21:00:00 5.8 4 Noroeste 22 Oeste 0 -- -- 65
2018-01-19 20:00:00 5.4 6 Oeste 23 Oeste 0 -- -- 67
2018-01-19 19:00:00 6.3 15 Oeste 25 Oeste 0 -- -- 66
2018-01-19 18:00:00 6.8 3 Sudoeste 21 Norte 0 -- -- 67
2018-01-19 17:00:00 7.1 14 Noroeste 35 Norte 0 -- -- 66
2018-01-19 16:00:00 8.9 17 Noroeste 28 Oeste 0 -- -- 66
2018-01-19 15:00:00 9.1 18 Oeste 35 Oeste 0 -- -- 66
2018-01-19 14:00:00 9 18 Oeste 32 Norte 0 -- -- 69
2018-01-19 13:00:00 10.1 7 Oeste 18 Oeste 0 -- -- 63
2018-01-19 12:00:00 9.6 10 Oeste 21 Oeste 0 -- -- 66
2018-01-19 11:00:00 9.3 3 Sur 9 Oeste 0 -- -- 72
2018-01-19 10:00:00 5.9 2 Sur 12 Oeste 0 -- -- 85
2018-01-19 09:00:00 3.4 4 Sudoeste 12 Oeste 0 -- -- 86
2018-01-19 08:00:00 3.2 5 Sudoeste 10 Oeste 0 -- -- 86
2018-01-19 07:00:00 3.8 3 Sudoeste 12 Oeste 0 -- -- 88
2018-01-19 06:00:00 3.7 5 Sudoeste 13 Oeste 0 -- -- 88
2018-01-19 05:00:00 2.4 4 Sudoeste 11 Sur 0 -- -- 88
2018-01-19 04:00:00 2.1 5 Sudoeste 9 Sur 0 -- -- 85
2018-01-19 03:00:00 3 3 Sudoeste 10 Sur 0 -- -- 84
2018-01-19 02:00:00 2.4 3 Sudoeste 9 Sur 0 -- -- 83
2018-01-19 01:00:00 2.3 3 Sudoeste 11 Sur 0 -- -- 81
2018-01-19 00:00:00 2.1 5 Sudoeste 9 Oeste 0 -- -- 77
2018-01-18 23:00:00 2.7 3 Sudeste 10 Oeste 0 -- -- 72
2018-01-18 22:00:00 2.7 3 Sudoeste 10 Sur 0 -- -- 71
2018-01-18 21:00:00 3.7 3 Oeste 13 Oeste 0 -- -- 69
2018-01-18 20:00:00 5.1 2 Sur 10 Oeste 0 -- -- 64
2018-01-18 19:00:00 6 4 Sudoeste 9 Oeste 0 -- -- 60
2018-01-18 18:00:00 8.4 5 Noroeste 15 Oeste 0 -- -- 54
2018-01-18 17:00:00 11.3 10 Oeste 22 Oeste 0 -- -- 47
2018-01-18 16:00:00 13.1 12 Oeste 19 Oeste 0 -- -- 46
2018-01-18 15:00:00 13.4 7 Oeste 22 Oeste 0 -- -- 44
2018-01-18 14:00:00 12.4 12 Oeste 22 Oeste 0 -- -- 46
2018-01-18 13:00:00 12 11 Oeste 17 Oeste 0 -- -- 46
2018-01-18 12:00:00 11 5 Oeste 15 Oeste 0 -- -- 49
2018-01-18 11:00:00 7.5 0 Calma 5 Norte 0 -- -- 61
2018-01-18 10:00:00 4.5 0 Calma 7 Sur 0 -- -- 68
2018-01-18 09:00:00 3 4 Sudoeste 14 Sur 0 -- -- 70
2018-01-18 08:00:00 0.5 4 Sur 9 Oeste 0 -- -- 76
2018-01-18 07:00:00 1.4 0 Calma 14 Oeste 0 -- -- 72
2018-01-18 06:00:00 1.9 5 Noroeste 9 Sur 0 -- -- 73
2018-01-18 05:00:00 1.7 0 Calma 10 Oeste 0 -- -- 72
2018-01-18 04:00:00 3.7 3 Sudoeste 10 Oeste 0 -- -- 70
2018-01-18 03:00:00 3.9 6 Oeste 14 Oeste 0 -- -- 73
2018-01-18 02:00:00 2.6 3 Oeste 11 Sur 0 -- -- 81
2018-01-18 01:00:00 0.5 0 Calma 12 Sur 0 -- -- 85
2018-01-18 00:00:00 0.6 5 Sudoeste 12 Oeste 0 -- -- 85
2018-01-17 23:00:00 0.9 4 Sudoeste 10 Sur 0 -- -- 83
2018-01-17 22:00:00 1 3 Sudoeste 12 Oeste 0 -- -- 82
2018-01-17 21:00:00 1.6 3 Sudoeste 10 Sur 0 -- -- 79
2018-01-17 20:00:00 2.4 3 Sudoeste 9 Oeste 0 -- -- 76
2018-01-17 19:00:00 3.4 4 Sudoeste 8 Sur 0 -- -- 72
2018-01-17 18:00:00 5.8 8 Norte 14 Norte 0 -- -- 64
2018-01-17 17:00:00 7.2 3 Norte 21 Norte 0 -- -- 60
2018-01-17 16:00:00 8.1 13 Norte 27 Norte 0 -- -- 57
2018-01-17 15:00:00 9 12 Oeste 25 Oeste 0 -- -- 55
2018-01-17 14:00:00 8 15 Noroeste 30 Norte 0 -- -- 58
2018-01-17 13:00:00 7.9 14 Noroeste 30 Oeste 0 -- -- 61
2018-01-17 12:00:00 8.5 14 Noroeste 23 Norte 0 -- -- 60
2018-01-17 11:00:00 7 10 Noroeste 21 Oeste 0 -- -- 66
2018-01-17 10:00:00 6.3 10 Oeste 21 Oeste 0 -- -- 70
2018-01-17 09:00:00 5.5 10 Oeste 31 Norte 0 -- -- 75
2018-01-17 08:00:00 6.2 17 Noroeste 33 Oeste 0 -- -- 78
2018-01-17 07:00:00 6.3 10 Oeste 16 Oeste 0 -- -- 82
2018-01-17 06:00:00 6.9 5 Oeste 15 Sur 0 -- -- 83
2018-01-17 05:00:00 7.1 5 Sudoeste 24 Oeste 0 -- -- 82
2018-01-17 04:00:00 7.3 9 Oeste 31 Oeste 0 -- -- 82
2018-01-17 03:00:00 8 16 Oeste 39 Oeste 0 -- -- 79
2018-01-17 02:00:00 8.5 13 Sudoeste 37 Sur 0 -- -- 76
2018-01-17 01:00:00 8.6 14 Sudoeste 37 Sur 0 -- -- 76
2018-01-17 00:00:00 8.9 15 Sudoeste 50 Oeste 0 -- -- 75
2018-01-16 23:00:00 9.1 14 Sudoeste 40 Oeste 0 -- -- 75
2018-01-16 22:00:00 9.2 10 Sudoeste 41 Sur 0 -- -- 75
2018-01-16 21:00:00 9.4 13 Sudoeste 48 Oeste 0 -- -- 75
2018-01-16 20:00:00 9.7 17 Sudoeste 47 Sur 0 -- -- 74
2018-01-16 19:00:00 9.1 14 Sudoeste 40 Oeste 0 -- -- 74
2018-01-16 18:00:00 9.1 11 Sudoeste 32 Sur 0 -- -- 73
2018-01-16 17:00:00 9 12 Sudoeste 45 Oeste 0 -- -- 75
2018-01-16 16:00:00 10.5 12 Sudoeste 35 Oeste 0 -- -- 66
2018-01-16 15:00:00 10.8 13 Sudoeste 39 Oeste 0 -- -- 65
2018-01-16 14:00:00 10.3 16 Sudoeste 43 Oeste 0 -- -- 66
2018-01-16 13:00:00 10.2 12 Sudoeste 30 Sur 0 -- -- 67
2018-01-16 12:00:00 9.6 12 Sudoeste 32 Oeste 0 -- -- 68
2018-01-16 11:00:00 9.5 10 Sudoeste 30 Sur 0 -- -- 69
2018-01-16 10:00:00 7.7 8 Sudoeste 27 Oeste 0 -- -- 76
2018-01-16 09:00:00 6.3 12 Oeste 30 Oeste 0 -- -- 81
2018-01-16 08:00:00 6.4 9 Oeste 28 Sur 0 -- -- 81
2018-01-16 07:00:00 6.4 10 Sudoeste 38 Sur 0 -- -- 79
2018-01-16 06:00:00 6.7 10 Sudoeste 37 Sur 0 -- -- 79
2018-01-16 05:00:00 6.4 13 Sudoeste 41 Sur 0 -- -- 76
2018-01-16 04:00:00 6.5 13 Sudoeste 37 Sur 0 -- -- 75
2018-01-16 03:00:00 6 10 Sudoeste 46 Sur 0 -- -- 66
2018-01-16 02:00:00 6.3 15 Sudoeste 42 Sur 0 -- -- 63
2018-01-16 01:00:00 6.5 12 Sudoeste 36 Oeste 0 -- -- 57
2018-01-16 00:00:00 6.1 14 Sudoeste 40 Oeste 0 -- -- 52
2018-01-15 23:00:00 5.9 17 Sudoeste 40 Sur 0 -- -- 52
2018-01-15 22:00:00 5.8 11 Sudoeste 38 Sur 0 -- -- 52
2018-01-15 21:00:00 5.7 12 Sudoeste 46 Oeste 0 -- -- 50
2018-01-15 20:00:00 6 10 Sudoeste 42 Sur 0 -- -- 46
2018-01-15 19:00:00 6 10 Sudoeste 48 Sur 0 -- -- 46
2018-01-15 18:00:00 5.1 12 Sudoeste 44 Oeste 0 -- -- 51
2018-01-15 17:00:00 4.9 16 Sudoeste 41 Sur 0 -- -- 55
2018-01-15 16:00:00 5.1 12 Sudoeste 40 Oeste 0 -- -- 54
2018-01-15 15:00:00 5.8 13 Sudoeste 40 Oeste 0 -- -- 55
2018-01-15 14:00:00 5.9 16 Sudoeste 42 Sudoeste 0 -- -- 56
2018-01-15 13:00:00 6 11 Sudoeste 33 Oeste 0 -- -- 57
2018-01-15 12:00:00 6.2 10 Sudoeste 28 Sur 0 -- -- 57
2018-01-15 11:00:00 5 6 Sudoeste 26 Oeste 0 -- -- 63
2018-01-15 10:00:00 2.6 5 Oeste 14 Sur 0 -- -- 78
2018-01-15 09:00:00 0.7 3 Oeste 16 Oeste 0 -- -- 85
2018-01-15 08:00:00 0.7 2 Sudoeste 13 Oeste 0 -- -- 85
2018-01-15 07:00:00 1.2 3 Oeste 13 Sur 0 -- -- 82
2018-01-15 06:00:00 1.5 4 Sudoeste 12 Oeste 0 -- -- 82
2018-01-15 05:00:00 1.4 3 Sudoeste 12 Oeste 0 -- -- 82
2018-01-15 04:00:00 2.3 2 Oeste 13 Oeste 0 -- -- 81
2018-01-15 03:00:00 2.2 0 Calma 11 Oeste 0 -- -- 83
2018-01-15 02:00:00 2.3 2 Sudoeste 11 Oeste 0 -- -- 83
2018-01-15 01:00:00 2.4 4 Oeste 10 Oeste 0 -- -- 82
2018-01-15 00:00:00 2.7 6 Oeste 10 Oeste 0 -- -- 81
2018-01-14 23:00:00 2.8 2 Oeste 12 Oeste 0 -- -- 79
2018-01-14 22:00:00 2.7 4 Sudoeste 10 Oeste 0 -- -- 80
2018-01-14 21:00:00 2.6 4 Oeste 13 Oeste 0 -- -- 80
2018-01-14 20:00:00 2.6 4 Sudoeste 11 Sur 0.1 -- -- 78
2018-01-14 19:00:00 3.1 4 Oeste 12 Oeste 0 -- -- 73
2018-01-14 18:00:00 3.4 3 Oeste 12 Oeste 0 -- -- 72
2018-01-14 17:00:00 3.6 5 Oeste 19 Oeste 0 -- -- 69
2018-01-14 16:00:00 4 9 Oeste 23 Sudoeste 0 -- -- 66
2018-01-14 15:00:00 4.6 9 Oeste 19 Oeste 0 -- -- 66
2018-01-14 14:00:00 4.5 9 Oeste 19 Oeste 0 -- -- 67
2018-01-14 13:00:00 4 5 Sur 19 Oeste 0 -- -- 76
2018-01-14 12:00:00 2.2 8 Oeste 18 Oeste 0 -- -- 80
2018-01-14 11:00:00 2.1 4 Oeste 12 Oeste 0 -- -- 81
2018-01-14 10:00:00 1.4 4 Oeste 13 Sudoeste 0 -- -- 83
2018-01-14 09:00:00 1 3 Sudoeste 18 Oeste 0 -- -- 83
2018-01-14 08:00:00 1.4 5 Sudoeste 15 Oeste 0 -- -- 85
2018-01-14 07:00:00 1.2 7 Sudoeste 18 Oeste 0 -- -- 86
2018-01-14 06:00:00 1.4 10 Oeste 21 Oeste 0 -- -- 85
2018-01-14 05:00:00 1.6 3 Sudoeste 17 Oeste 0 -- -- 85
2018-01-14 04:00:00 1.5 7 Sudoeste 23 Oeste 0 -- -- 85
2018-01-14 03:00:00 1.3 9 Sudoeste 31 Sur 0 -- -- 85
2018-01-14 02:00:00 1 8 Sudoeste 23 Oeste 0 -- -- 87
2018-01-14 01:00:00 0.8 5 Oeste 22 Oeste 0 -- -- 87
2018-01-14 00:00:00 1.1 12 Oeste 16 Oeste 0 -- -- 89
2018-01-13 23:00:00 1.3 5 Sudoeste 21 Sur 0.2 -- -- 92
2018-01-13 22:00:00 0.9 0 Calma 8 Oeste 0.3 -- -- 94
2018-01-13 21:00:00 0.2 0 Calma 3 Sur 0.5 -- -- 94
2018-01-13 20:00:00 0.2 0 Calma 7 Oeste 0.5 -- -- 94
2018-01-13 19:00:00 0.3 0 Calma 5 Oeste 0.9 -- -- 94
2018-01-13 18:00:00 0.5 0 Calma 6 Noroeste 0.5 -- -- 94
2018-01-13 17:00:00 0.9 0 Calma 10 Este 0 -- -- 94
2018-01-13 16:00:00 0.9 4 Este 10 Este 0 -- -- 94
2018-01-13 15:00:00 1 5 Este 10 Este 0 -- -- 94
2018-01-13 14:00:00 0.7 4 Norte 7 Este 0 -- -- 94
2018-01-13 13:00:00 0.3 0 Calma 6 Este 0 -- -- 94
2018-01-13 12:00:00 0 0 Calma 6 Este 0 -- -- 94
2018-01-13 11:00:00 -0.2 2 Nordeste 8 Este 0 -- -- 94
2018-01-13 10:00:00 -0.3 0 Calma 9 Este 0 -- -- 92
2018-01-13 09:00:00 -0.2 5 Este 9 Este 0 -- -- 90
2018-01-13 08:00:00 -0.8 0 Calma 6 Oeste 0 -- -- 85
2018-01-13 07:00:00 -0.7 3 Sudeste 6 Sur 0 -- -- 85
2018-01-13 06:00:00 -0.4 3 Sur 6 Oeste 0 -- -- 83
2018-01-13 05:00:00 -0.2 0 Calma 3 Este 0 -- -- 83
2018-01-13 04:00:00 -0.3 0 Calma 6 Sur 0 -- -- 83
2018-01-13 03:00:00 -0.2 0 Calma 9 Este 0 -- -- 84
2018-01-13 02:00:00 0 9 Este 12 Este 0 -- -- 85
2018-01-13 01:00:00 0.2 0 Calma 13 Este 0 -- -- 85
2018-01-13 00:00:00 0.5 8 Este 11 Este 0 -- -- 82
2018-01-12 23:00:00 1.1 6 Este 13 Este 0 -- -- 81
2018-01-12 22:00:00 1 0 Calma 7 Oeste 0 -- -- 75
2018-01-12 21:00:00 2.4 3 Sudeste 7 Sur 0 -- -- 70
2018-01-12 20:00:00 3.8 4 Oeste 20 Oeste 0 -- -- 64
2018-01-12 19:00:00 4.4 7 Oeste 22 Oeste 0 -- -- 61
2018-01-12 18:00:00 4.5 12 Oeste 18 Oeste 0 -- -- 72
2018-01-12 17:00:00 5.6 2 Norte 15 Oeste 0 -- -- 75
2018-01-12 16:00:00 5.9 13 Oeste 17 Oeste 0 -- -- 72
2018-01-12 15:00:00 7.1 4 Norte 12 Oeste 0 -- -- 62
2018-01-12 14:00:00 7.2 2 Oeste 12 Sur 0 -- -- 57
2018-01-12 13:00:00 6.7 4 Sudoeste 14 Sur 0 -- -- 58
2018-01-12 12:00:00 5.7 5 Sudoeste 16 Oeste 0 -- -- 67
2018-01-12 11:00:00 4.7 4 Sudoeste 12 Oeste 0 -- -- 76
2018-01-12 10:00:00 3.7 3 Sudoeste 9 Oeste 0 -- -- 81
2018-01-12 09:00:00 2.9 3 Oeste 10 Oeste 0 -- -- 83
2018-01-12 08:00:00 3.2 5 Sudoeste 13 Oeste 0 -- -- 82
2018-01-12 07:00:00 2.8 3 Sudoeste 10 Sur 0.1 -- -- 83
2018-01-12 06:00:00 3.4 3 Sudoeste 13 Oeste 0 -- -- 82
2018-01-12 05:00:00 3.7 4 Oeste 15 Oeste 0 -- -- 82
2018-01-12 04:00:00 3.6 5 Sudoeste 12 Oeste 0 -- -- 83
2018-01-12 03:00:00 3.6 5 Sudoeste 12 Sur 0 -- -- 83
2018-01-12 02:00:00 3.6 3 Sudoeste 15 Sur 0.3 -- -- 82
2018-01-12 01:00:00 3.8 5 Sudoeste 13 Oeste 0 -- -- 81
2018-01-12 00:00:00 3.9 5 Sudoeste 15 Oeste 0 -- -- 80
2018-01-11 23:00:00 3.6 4 Sudoeste 16 Oeste 0 -- -- 77
2018-01-11 22:00:00 3.8 6 Oeste 20 Sur 0 -- -- 76
2018-01-11 21:00:00 3.6 5 Sudoeste 17 Oeste 0.1 -- -- 76
2018-01-11 20:00:00 4 10 Sudoeste 31 Oeste 0 -- -- 72
2018-01-11 19:00:00 4.5 15 Oeste 30 Oeste 0 -- -- 65
2018-01-11 18:00:00 4.8 10 Sudoeste 30 Oeste 0 -- -- 61
2018-01-11 17:00:00 4.8 13 Sudoeste 35 Oeste 0 -- -- 58
2018-01-11 16:00:00 5.1 12 Sudoeste 35 Sur 0 -- -- 57
2018-01-11 15:00:00 5.6 12 Sudoeste 35 Sur 0 -- -- 60
2018-01-11 14:00:00 4.2 13 Sudoeste 33 Oeste 0 -- -- 64
2018-01-11 13:00:00 3.7 11 Sudoeste 31 Oeste 0 -- -- 67
2018-01-11 12:00:00 2.8 11 Sudoeste 30 Oeste 0 -- -- 71
2018-01-11 11:00:00 2.5 9 Sudoeste 30 Oeste 0 -- -- 74
2018-01-11 10:00:00 1.7 11 Sudoeste 30 Sur 0 -- -- 76
2018-01-11 09:00:00 1.4 12 Sudoeste 28 Sur 0 -- -- 76
2018-01-11 08:00:00 1.3 12 Sudoeste 30 Oeste 0 -- -- 76
2018-01-11 07:00:00 1.5 10 Sudoeste 37 Sur 0 -- -- 77
2018-01-11 06:00:00 1.7 15 Sudoeste 42 Oeste 0 -- -- 77
2018-01-11 05:00:00 2.2 14 Sudoeste 45 Oeste 0 -- -- 76
2018-01-11 04:00:00 2.3 17 Sudoeste 51 Oeste 0 -- -- 76
2018-01-11 03:00:00 2.1 15 Sudoeste 42 Sur 0 -- -- 76
2018-01-11 02:00:00 2.4 15 Sudoeste 45 Oeste 0 -- -- 70
2018-01-11 01:00:00 2.1 13 Sudoeste 40 Oeste 0 -- -- 72
2018-01-11 00:00:00 2.1 15 Sudoeste 39 Oeste 0 -- -- 72
2018-01-10 23:00:00 1.8 13 Sudoeste 36 Oeste 0 -- -- 73
2018-01-10 22:00:00 2 14 Sudoeste 40 Sur 0 -- -- 73
2018-01-10 21:00:00 2.8 16 Sudoeste 45 Oeste 0 -- -- 72
2018-01-10 20:00:00 3.7 15 Sudoeste 40 Oeste 0 -- -- 72
2018-01-10 19:00:00 4.5 12 Sudoeste 36 Oeste 0 -- -- 76
2018-01-10 18:00:00 4.4 14 Sudoeste 33 Sur 0.1 -- -- 78
2018-01-10 17:00:00 4.3 9 Sudoeste 29 Sur 0.9 -- -- 78
2018-01-10 16:00:00 5.5 8 Sudoeste 33 Sur 0.1 -- -- 70
2018-01-10 15:00:00 6.2 9 Sudoeste 35 Oeste 0 -- -- 67
2018-01-10 14:00:00 5.4 9 Sur 41 Sur 0 -- -- 68
2018-01-10 13:00:00 6 13 Sudoeste 37 Oeste 0 -- -- 64
2018-01-10 12:00:00 5.1 11 Sudoeste 34 Oeste 0 -- -- 72
2018-01-10 11:00:00 4.9 12 Sudoeste 33 Sur 0 -- -- 75
2018-01-10 10:00:00 4.5 8 Sudoeste 36 Sur 0 -- -- 79
2018-01-10 09:00:00 3.7 7 Sudoeste 20 Oeste 0 -- -- 83
2018-01-10 08:00:00 3.5 5 Sur 40 Oeste 0 -- -- 83
2018-01-10 07:00:00 3.3 13 Sudoeste 32 Oeste 0 -- -- 85
2018-01-10 06:00:00 2.2 3 Noroeste 31 Oeste 0 -- -- 85
2018-01-10 05:00:00 3.5 7 Sudoeste 18 Oeste 0 -- -- 85
2018-01-10 04:00:00 3.1 4 Oeste 14 Sur 0 -- -- 85
2018-01-10 03:00:00 2.4 4 Oeste 20 Oeste 0 -- -- 86
2018-01-10 02:00:00 2.6 3 Sudoeste 16 Oeste 0 -- -- 84
2018-01-10 01:00:00 3.4 5 Oeste 19 Oeste 0 -- -- 81
2018-01-10 00:00:00 3.3 3 Sudoeste 14 Oeste 0 -- -- 80
2018-01-09 23:00:00 3.4 6 Oeste 22 Sur 0 -- -- 79
2018-01-09 22:00:00 3.4 5 Oeste 27 Sur 0 -- -- 79
2018-01-09 21:00:00 3.5 9 Sudoeste 29 Sur 0 -- -- 79
2018-01-09 20:00:00 1.9 5 Noroeste 13 Este 0 -- -- 85
2018-01-09 19:00:00 0.7 6 Este 19 Este 0 -- -- 87
2018-01-09 18:00:00 0.7 10 Oeste 19 Oeste 0 -- -- 82
2018-01-09 17:00:00 1.1 8 Este 23 Este 0 -- -- 70
2018-01-09 16:00:00 4.2 5 Sudoeste 32 Sur 0 -- -- 62
2018-01-09 15:00:00 3.7 10 Sudoeste 33 Sur 0 -- -- 58
2018-01-09 14:00:00 4.1 9 Sudoeste 37 Oeste 0 -- -- 51
2018-01-09 13:00:00 4.3 11 Sudoeste 35 Oeste 0 -- -- 49
2018-01-09 12:00:00 4 11 Sudoeste 30 Oeste 0 -- -- 54
2018-01-09 11:00:00 3.2 12 Sudoeste 31 Oeste 0 -- -- 58
2018-01-09 10:00:00 -1.2 0 Calma 13 Este 0 -- -- 62
2018-01-09 09:00:00 -2.4 13 Este 17 Oeste 0 -- -- 62
2018-01-09 08:00:00 1.1 7 Oeste 27 Sur 0 -- -- 51
2018-01-09 07:00:00 1.6 11 Sudoeste 29 Sur 0 -- -- 51
2018-01-09 06:00:00 0.7 10 Oeste 26 Oeste 0 -- -- 56
2018-01-09 05:00:00 0.5 9 Oeste 28 Oeste 0 -- -- 60
2018-01-09 04:00:00 1 11 Sudoeste 35 Sur 0 -- -- 58
2018-01-09 03:00:00 0.8 13 Sudoeste 27 Oeste 0 -- -- 58
2018-01-09 02:00:00 -1.8 19 Oeste 26 Oeste 0 -- -- 63
2018-01-09 01:00:00 1.3 12 Sudoeste 33 Oeste 0 -- -- 61
2018-01-09 00:00:00 -0.2 9 Oeste 33 Oeste 0 -- -- 65
2018-01-08 23:00:00 -1.7 13 Oeste 19 Oeste 0 -- -- 66
2018-01-08 22:00:00 0.7 7 Oeste 23 Oeste 0 -- -- 63
2018-01-08 21:00:00 1.3 6 Sudoeste 21 Oeste 0 -- -- 63
2018-01-08 20:00:00 0.4 6 Oeste 16 Oeste 0 -- -- 72
2018-01-08 19:00:00 0 3 Sudoeste 10 Sur 0 -- -- 70
2018-01-08 18:00:00 1.1 2 Sudoeste 13 Oeste 0 -- -- 63
2018-01-08 17:00:00 2.7 5 Sudoeste 14 Sur 0 -- -- 61
2018-01-08 16:00:00 3.7 5 Oeste 16 Oeste 0 -- -- 57
2018-01-08 15:00:00 3.9 8 Oeste 18 Oeste 0 -- -- 60
2018-01-08 14:00:00 2.4 8 Oeste 16 Oeste 0 -- -- 62
2018-01-08 13:00:00 2.3 0 Calma 5 Oeste 0 -- -- 68
2018-01-08 12:00:00 1.1 0 Calma 5 Sur 0 -- -- 75
2018-01-08 11:00:00 -1.3 2 Sur 6 Noroeste 0 -- -- 91
2018-01-08 10:00:00 -4.1 0 Calma 7 Noroeste 0 -- -- 94
2018-01-08 09:00:00 -3.9 0 Calma 8 Noroeste 0 -- -- 95
2018-01-08 08:00:00 -4 2 Noroeste 5 Noroeste 0 -- -- 95
2018-01-08 07:00:00 -4.1 0 Calma 4 Noroeste 0 -- -- 95
2018-01-08 06:00:00 -4.1 0 Calma 5 Noroeste 0 -- -- 95
2018-01-08 05:00:00 -4 0 Calma 6 Noroeste 0 -- -- 95
2018-01-08 04:00:00 -3.6 0 Calma 8 Noroeste 0 -- -- 95
2018-01-08 03:00:00 -2.8 3 Noroeste 15 Noroeste 0 -- -- 95
2018-01-08 02:00:00 -2 4 Noroeste 9 Noroeste 0 -- -- 95
2018-01-08 01:00:00 -1.6 6 Noroeste 11 Noroeste 0 -- -- 95
2018-01-08 00:00:00 -1.2 3 Noroeste 19 Noroeste 0 -- -- 95
2018-01-07 23:00:00 -0.6 5 Noroeste 12 Noroeste 0 -- -- 95
2018-01-07 22:00:00 -0.5 4 Noroeste 13 Noroeste 0 -- -- 95
2018-01-07 21:00:00 -0.3 6 Noroeste 12 Oeste 0 -- -- 95
2018-01-07 20:00:00 0 0 Calma 9 Este 0 -- -- 95
2018-01-07 19:00:00 0.1 7 Este 18 Este 0 -- -- 95
2018-01-07 18:00:00 0.4 12 Este 17 Este 0 -- -- 95
2018-01-07 17:00:00 0.6 9 Este 24 Este 0 -- -- 95
2018-01-07 16:00:00 0.9 14 Este 21 Este 0 -- -- 94
2018-01-07 15:00:00 1.6 12 Este 15 Este 0 -- -- 94
2018-01-07 14:00:00 2.2 8 Este 11 Este 0.1 -- -- 93
2018-01-07 13:00:00 2 4 Este 5 Este 0.4 -- -- 94
2018-01-07 12:00:00 1.7 0 Calma 5 Este 0.8 -- -- 95
2018-01-07 11:00:00 0.9 0 Calma 0 Calma 1.3 -- -- 95
2018-01-07 10:00:00 0.4 0 Calma 4 Sudoeste 1.3 -- -- 95
2018-01-07 09:00:00 0.2 0 Calma 4 Oeste 0.9 -- -- 95
2018-01-07 08:00:00 0.2 0 Calma 3 Norte 0.8 -- -- 95
2018-01-07 07:00:00 0.2 0 Calma 6 Norte 0.3 -- -- 95
2018-01-07 06:00:00 0.1 2 Norte 4 Norte 0.5 -- -- 95
2018-01-07 05:00:00 0.1 0 Calma 5 Este 0.2 -- -- 95
2018-01-07 04:00:00 0 4 Este 8 Este 0.3 -- -- 95
2018-01-07 03:00:00 -0.1 7 Este 8 Este 1.1 -- -- 95
2018-01-07 02:00:00 -0.3 6 Este 11 Este 1.9 -- -- 95
2018-01-07 01:00:00 -0.2 6 Este 9 Este 2.6 -- -- 95
2018-01-07 00:00:00 -0.2 5 Este 11 Este 1.2 -- -- 95
2018-01-06 23:00:00 -0.2 6 Nordeste 13 Norte 0.9 -- -- 95
2018-01-06 22:00:00 -0.1 5 Este 11 Este 2 -- -- 95
2018-01-06 21:00:00 -0.1 5 Este 10 Este 2.2 -- -- 95
2018-01-06 20:00:00 0 5 Este 9 Norte 1.9 -- -- 94
2018-01-06 19:00:00 0 5 Este 10 Este 2.3 -- -- 94
2018-01-06 18:00:00 0.2 4 Nordeste 9 Norte 2.4 -- -- 94
2018-01-06 17:00:00 0.6 0 Calma 0 Calma 1.6 -- -- 94
2018-01-06 16:00:00 0.8 0 Calma 4 Sur 1.5 -- -- 94
2018-01-06 15:00:00 0.7 3 Oeste 4 Oeste 1.6 -- -- 94
2018-01-06 14:00:00 0.8 0 Calma 5 Este 1.6 -- -- 94
2018-01-06 13:00:00 0.8 0 Calma 4 Este 1.8 -- -- 95
2018-01-06 12:00:00 0.6 4 Este 5 Este 1.3 -- -- 95
2018-01-06 11:00:00 0.4 4 Este 6 Este 1.1 -- -- 95
2018-01-06 10:00:00 0.4 4 Este 8 Este 0.9 -- -- 95
2018-01-06 09:00:00 0.1 6 Este 10 Este 0.5 -- -- 95
2018-01-06 08:00:00 0.2 8 Este 10 Este 0.5 -- -- 95
2018-01-06 07:00:00 0.3 4 Este 7 Este 0 -- -- 94
2018-01-06 06:00:00 0.2 4 Este 6 Este 0.6 -- -- 94
2018-01-06 05:00:00 0.4 4 Este 12 Este 1.1 -- -- 94
2018-01-06 04:00:00 0.3 8 Este 12 Este 1 -- -- 94
2018-01-06 03:00:00 0.9 10 Este 15 Este 1.3 -- -- 92
2018-01-06 02:00:00 2 9 Este 15 Este 1.5 -- -- 91
2018-01-06 01:00:00 2.9 11 Este 21 Este 0.6 -- -- 90
2018-01-06 00:00:00 3.7 20 Este 25 Este 0.7 -- -- 88
2018-01-05 23:00:00 4.4 3 Oeste 17 Norte 4 -- -- 86
2018-01-05 22:00:00 5.8 6 Noroeste 10 Norte 1 -- -- 85
2018-01-05 21:00:00 6.1 3 Sudoeste 9 Sur 0.8 -- -- 82
2018-01-05 20:00:00 6.7 0 Calma 12 Oeste 0.7 -- -- 80
2018-01-05 19:00:00 7.1 4 Sudoeste 15 Oeste 0.3 -- -- 75
2018-01-05 18:00:00 7.7 6 Sudoeste 20 Oeste 0 -- -- 72
2018-01-05 17:00:00 8.1 7 Sudoeste 24 Oeste 0 -- -- 66
2018-01-05 16:00:00 9.1 8 Sudoeste 36 Sudoeste 0 -- -- 63
2018-01-05 15:00:00 10.4 12 Sudoeste 49 Oeste 0 -- -- 62
2018-01-05 14:00:00 10.1 11 Sur 39 Oeste 0 -- -- 64
2018-01-05 13:00:00 10.3 10 Sudoeste 49 Sur 0 -- -- 64
2018-01-05 12:00:00 9.7 10 Sur 46 Oeste 0 -- -- 65
2018-01-05 11:00:00 9.3 10 Sur 36 Sur 0 -- -- 67
2018-01-05 10:00:00 9.5 10 Sudoeste 49 Sur 0 -- -- 64
2018-01-05 09:00:00 9 11 Sur 40 Sur 0 -- -- 65
2018-01-05 08:00:00 8.7 12 Sudoeste 41 Sur 0 -- -- 66
2018-01-05 07:00:00 8.6 11 Sudoeste 45 Sur 0 -- -- 66
2018-01-05 06:00:00 8.7 10 Sur 50 Oeste 0 -- -- 64
2018-01-05 05:00:00 8.6 17 Sudoeste 46 Sur 0 -- -- 66
2018-01-05 04:00:00 9 13 Sudoeste 67 Oeste 0 -- -- 63
2018-01-05 03:00:00 9.5 16 Sudoeste 48 Oeste 0 -- -- 64
2018-01-05 02:00:00 9.4 18 Sudoeste 56 Oeste 0 -- -- 67
2018-01-05 01:00:00 9.9 14 Sudoeste 45 Oeste 0 -- -- 66
2018-01-05 00:00:00 10.1 17 Sudoeste 47 Oeste 0 -- -- 69
2018-01-04 23:00:00 10 15 Sudoeste 45 Oeste 0 -- -- 67
2018-01-04 22:00:00 10.7 18 Sudoeste 45 Oeste 0 -- -- 66
2018-01-04 21:00:00 10.8 13 Sudoeste 42 Oeste 0 -- -- 65
2018-01-04 20:00:00 10.8 12 Sudoeste 44 Sur 0 -- -- 64
2018-01-04 19:00:00 11 13 Sudoeste 49 Oeste 0 -- -- 61
2018-01-04 18:00:00 10.4 13 Sudoeste 35 Sur 0 -- -- 61
2018-01-04 17:00:00 10.8 13 Sudoeste 49 Sur 0 -- -- 60
2018-01-04 16:00:00 11 21 Sudoeste 52 Oeste 0 -- -- 60
2018-01-04 15:00:00 11.6 15 Sudoeste 49 Oeste 0 -- -- 60
2018-01-04 14:00:00 12 17 Sudoeste 55 Oeste 0 -- -- 58
2018-01-04 13:00:00 11.9 18 Sudoeste 56 Oeste 0 -- -- 63
2018-01-04 12:00:00 11.5 21 Sudoeste 56 Oeste 0 -- -- 65
2018-01-04 11:00:00 11.5 15 Sudoeste 49 Oeste 0 -- -- 70
2018-01-04 10:00:00 10.6 19 Sudoeste 51 Sur 0 -- -- 78
2018-01-04 09:00:00 10.6 13 Sudoeste 36 Oeste 0 -- -- 80
2018-01-04 08:00:00 10 14 Sudoeste 46 Sudoeste 0 -- -- 82
2018-01-04 07:00:00 10.1 16 Sudoeste 47 Sur 0 -- -- 80
2018-01-04 06:00:00 10.4 14 Sudoeste 37 Oeste 0 -- -- 80
2018-01-04 05:00:00 10.4 12 Sudoeste 46 Oeste 0 -- -- 79
2018-01-04 04:00:00 10.7 17 Sudoeste 45 Sur 0 -- -- 80
2018-01-04 03:00:00 10.6 16 Sudoeste 41 Sur 0 -- -- 81
2018-01-04 02:00:00 11 17 Sudoeste 42 Oeste 0 -- -- 79
2018-01-04 01:00:00 11.5 15 Sudoeste 40 Oeste 0 -- -- 78
2018-01-04 00:00:00 12.1 14 Sudoeste 44 Sur 0 -- -- 76
2018-01-03 23:00:00 12.1 14 Sudoeste 39 Oeste 0 -- -- 76
2018-01-03 22:00:00 12.4 13 Sudoeste 38 Sur 0 -- -- 75
2018-01-03 21:00:00 12.6 12 Sudoeste 43 Sur 0 -- -- 75
2018-01-03 20:00:00 12.9 16 Sudoeste 41 Oeste 0 -- -- 74
2018-01-03 19:00:00 12.8 12 Sudoeste 37 Sur 0 -- -- 74
2018-01-03 18:00:00 13 10 Sudoeste 34 Sur 0 -- -- 73
2018-01-03 17:00:00 13.5 12 Sudoeste 41 Sur 0 -- -- 72
2018-01-03 16:00:00 14 13 Sudoeste 42 Sur 0 -- -- 72
2018-01-03 15:00:00 13.5 16 Sudoeste 38 Sudoeste 0 -- -- 74
2018-01-03 14:00:00 12.9 11 Sudoeste 40 Oeste 0 -- -- 79
2018-01-03 13:00:00 12.6 13 Sudoeste 43 Sur 0 -- -- 79
2018-01-03 12:00:00 12.2 14 Sudoeste 44 Oeste 0 -- -- 82
2018-01-03 11:00:00 12 11 Sudoeste 40 Oeste 0 -- -- 83
2018-01-03 10:00:00 11.6 12 Sudoeste 44 Sur 0 -- -- 84
2018-01-03 09:00:00 11.5 15 Sudoeste 48 Sur 0 -- -- 84
2018-01-03 08:00:00 11.2 15 Sudoeste 50 Sur 0 -- -- 84
2018-01-03 07:00:00 11.2 15 Sudoeste 42 Sur 0 -- -- 83
2018-01-03 06:00:00 11.2 14 Sudoeste 42 Sur 0 -- -- 83
2018-01-03 05:00:00 11.2 11 Sudoeste 41 Oeste 0 -- -- 83
2018-01-03 04:00:00 11.2 13 Sudoeste 35 Oeste 0 -- -- 84
2018-01-03 03:00:00 11.2 12 Sudoeste 43 Oeste 0 -- -- 82
2018-01-03 02:00:00 11.2 15 Sudoeste 47 Oeste 0 -- -- 82
2018-01-03 01:00:00 10.9 13 Sudoeste 40 Sur 0 -- -- 82
2018-01-03 00:00:00 10.9 12 Sudoeste 41 Oeste 0 -- -- 82
2018-01-02 23:00:00 10.5 13 Sudoeste 38 Oeste 0 -- -- 82
2018-01-02 22:00:00 10.9 15 Sudoeste 50 Sur 0 -- -- 79
2018-01-02 21:00:00 10.9 14 Sudoeste 46 Oeste 0 -- -- 78
2018-01-02 20:00:00 10.9 16 Sudoeste 40 Sur 0 -- -- 76
2018-01-02 19:00:00 10.7 15 Sudoeste 49 Oeste 0 -- -- 76
2018-01-02 18:00:00 10.7 17 Sudoeste 44 Oeste 0 -- -- 76
2018-01-02 17:00:00 10.4 18 Sudoeste 43 Sur 0 -- -- 75
2018-01-02 16:00:00 10.2 18 Sudoeste 56 Oeste 0 -- -- 74
2018-01-02 15:00:00 11.1 15 Sudoeste 44 Oeste 0 -- -- 70
2018-01-02 14:00:00 10.9 14 Sudoeste 47 Oeste 0 -- -- 69
2018-01-02 13:00:00 10.5 17 Sudoeste 50 Oeste 0 -- -- 70
2018-01-02 12:00:00 10.4 16 Sudoeste 45 Oeste 0 -- -- 69
2018-01-02 11:00:00 9 13 Sudoeste 46 Oeste 0 -- -- 72
2018-01-02 10:00:00 7.9 16 Sudoeste 44 Oeste 0 -- -- 72
2018-01-02 09:00:00 7.6 17 Sudoeste 43 Oeste 0 -- -- 72
2018-01-02 08:00:00 7.5 12 Sudoeste 45 Sur 0 -- -- 74
2018-01-02 07:00:00 7.3 12 Sudoeste 44 Oeste 0 -- -- 75
2018-01-02 06:00:00 7.2 11 Sudoeste 45 Sur 0 -- -- 75
2018-01-02 05:00:00 7.1 10 Sudoeste 44 Sur 0 -- -- 76
2018-01-02 04:00:00 7.4 10 Sudoeste 41 Sur 0 -- -- 76
2018-01-02 03:00:00 7.6 15 Sudoeste 45 Sur 0 -- -- 77
2018-01-02 02:00:00 7.7 15 Sudoeste 42 Oeste 0 -- -- 79
2018-01-02 01:00:00 8.1 15 Sudoeste 46 Oeste 0 -- -- 77
2018-01-02 00:00:00 8.4 15 Sudoeste 46 Sur 0 -- -- 75
2018-01-01 23:00:00 8.4 18 Sudoeste 44 Sur 0 -- -- 74
2018-01-01 22:00:00 8.5 16 Sudoeste 52 Oeste 0 -- -- 73
2018-01-01 21:00:00 9 22 Sudoeste 53 Oeste 0 -- -- 72
2018-01-01 20:00:00 8.8 15 Sudoeste 44 Oeste 0.1 -- -- 74
2018-01-01 19:00:00 8.6 17 Sudoeste 44 Oeste 0 -- -- 75
2018-01-01 18:00:00 8.6 17 Sudoeste 55 Oeste 0 -- -- 70
2018-01-01 17:00:00 8.4 22 Sudoeste 78 Oeste 0 -- -- 70
2018-01-01 16:00:00 8.1 21 Sudoeste 62 Oeste 0 -- -- 70
2018-01-01 15:00:00 7.5 24 Sudoeste 73 Sur 0 -- -- 69
2018-01-01 14:00:00 7.6 19 Sudoeste 63 Oeste 0 -- -- 67
2018-01-01 13:00:00 7.2 17 Sudoeste 62 Oeste 0 -- -- 66
2018-01-01 12:00:00 6.7 15 Sudoeste 58 Oeste 0 -- -- 66
2018-01-01 11:00:00 6.2 19 Sudoeste 66 Sur 0 -- -- 67
2018-01-01 10:00:00 5.5 19 Sudoeste 58 Oeste 0 -- -- 70
2018-01-01 09:00:00 4.7 16 Sudoeste 58 Sur 0 -- -- 72
2018-01-01 08:00:00 3.8 19 Sudoeste 51 Oeste 0 -- -- 72
2018-01-01 07:00:00 3.7 16 Sudoeste 53 Oeste 0 -- -- 70
2018-01-01 06:00:00 3.5 13 Sudoeste 43 Sur 0 -- -- 67
2018-01-01 05:00:00 3.9 12 Sudoeste 39 Oeste 0 -- -- 66
2018-01-01 04:00:00 3.7 13 Sudoeste 39 Sur 0 -- -- 67
2018-01-01 03:00:00 3 12 Sudoeste 36 Sur 0 -- -- 68
2018-01-01 02:00:00 3.2 14 Sudoeste 39 Oeste 0 -- -- 69
2018-01-01 01:00:00 3.1 17 Sudoeste 42 Oeste 0 -- -- 69
2018-01-01 00:00:00 3.2 12 Sudoeste 36 Oeste 0 -- -- 67
2017-12-31 23:00:00 2.9 11 Sudoeste 34 Oeste 0 -- -- 68
2017-12-31 22:00:00 3.6 13 Sudoeste 36 Sur 0 -- -- 71
2017-12-31 21:00:00 4.6 14 Sudoeste 33 Oeste 0 -- -- 73
2017-12-31 20:00:00 5.1 12 Sudoeste 37 Oeste 0 -- -- 74
2017-12-31 19:00:00 6.1 9 Oeste 37 Oeste 0 -- -- 75
2017-12-31 18:00:00 6.6 8 Sudoeste 47 Oeste 0.1 -- -- 74
2017-12-31 17:00:00 8.1 17 Oeste 47 Oeste 1.2 -- -- 75
2017-12-31 16:00:00 9.5 11 Sudoeste 39 Sur 0 -- -- 64
2017-12-31 15:00:00 10.9 10 Sudoeste 48 Sur 0 -- -- 55
2017-12-31 14:00:00 10.7 9 Sudoeste 49 Oeste 0 -- -- 56
2017-12-31 13:00:00 9.9 13 Sudoeste 57 Sur 0 -- -- 58
2017-12-31 12:00:00 9.9 10 Sur 41 Sur 0 -- -- 58
2017-12-31 11:00:00 9.8 9 Sur 38 Oeste 0 -- -- 60
2017-12-31 10:00:00 9.5 10 Sudoeste 36 Sur 0 -- -- 60
2017-12-31 09:00:00 9 8 Sudoeste 30 Sur 0 -- -- 61
2017-12-31 08:00:00 9 8 Sudoeste 27 Sur 0 -- -- 61
2017-12-31 07:00:00 9 10 Sudoeste 35 Oeste 0 -- -- 63
2017-12-31 06:00:00 8.8 11 Sudoeste 41 Sur 0 -- -- 63
2017-12-31 05:00:00 9 15 Sudoeste 42 Sur 0 -- -- 63
2017-12-31 04:00:00 9 14 Sudoeste 38 Sur 0 -- -- 63
2017-12-31 03:00:00 8.8 14 Sudoeste 43 Oeste 0 -- -- 64
2017-12-31 02:00:00 8.7 9 Sudoeste 26 Oeste 0 -- -- 64
2017-12-31 01:00:00 8.8 9 Oeste 33 Sur 0 -- -- 64